Time;durP1;ratioP1;P1;durP2;ratioP2;P2;SDS_P1;SDS_P2;PMS_P1;PMS_P2;Temp;Humidity;BMP_temperature;BMP_pressure;BME280_temperature;BME280_humidity;BME280_pressure;Samples;Min_cycle;Max_cycle;Signal;HPM_P1;HPM_P2
2023/06/14 00:00:14;;;;;;;0.00;0.00;;;;;;;25.42;29.69;101637.47;5011539;28;20065;-75
2023/06/14 00:02:41;;;;;;;0.00;0.00;;;;;;;26.35;28.56;101643.22;5010143;28;20128;-76
2023/06/14 00:05:07;;;;;;;0.00;0.00;;;;;;;26.49;27.87;101641.22;5011751;28;20413;-76
2023/06/14 00:07:44;;;;;;;0.05;0.05;;;;;;;26.11;28.85;101639.91;5012391;28;20017;-74
2023/06/14 00:10:14;;;;;;;0.00;0.00;;;;;;;26.35;28.17;101642.38;5011761;28;20040;-74
2023/06/14 00:12:39;;;;;;;0.00;0.00;;;;;;;26.17;28.54;101643.34;5011733;28;20037;-73
2023/06/14 00:15:06;;;;;;;0.00;0.00;;;;;;;26.27;28.54;101637.63;5011300;28;20030;-74
2023/06/14 00:17:31;;;;;;;0.00;0.00;;;;;;;26.23;28.35;101642.94;5011395;28;20038;-76
2023/06/14 00:19:59;;;;;;;0.00;0.00;;;;;;;26.26;28.61;101644.28;5011333;28;20072;-74
2023/06/14 00:22:25;;;;;;;0.10;0.00;;;;;;;26.09;28.64;101640.22;5009860;28;20065;-74
2023/06/14 00:24:51;;;;;;;0.00;0.00;;;;;;;26.09;28.78;101634.72;5010108;28;20128;-74
2023/06/14 00:27:17;;;;;;;0.00;0.00;;;;;;;25.88;28.92;101633.50;5010426;28;20093;-74
2023/06/14 00:29:42;;;;;;;0.00;0.00;;;;;;;26.15;28.44;101642.84;5010422;28;20041;-77
2023/06/14 00:32:08;;;;;;;0.00;0.00;;;;;;;26.08;28.53;101641.31;5010055;28;20034;-75
2023/06/14 00:34:33;;;;;;;0.08;0.08;;;;;;;26.21;28.23;101638.84;5012620;28;20029;-74
2023/06/14 00:36:59;;;;;;;0.00;0.00;;;;;;;25.95;28.78;101641.31;5011859;28;20038;-74
2023/06/14 00:39:24;;;;;;;0.00;0.00;;;;;;;25.77;28.77;101645.81;5011063;28;20064;-73
2023/06/14 00:41:50;;;;;;;0.00;0.00;;;;;;;25.82;28.90;101642.16;5012335;28;20204;-76
2023/06/14 00:44:17;;;;;;;0.00;0.00;;;;;;;25.92;29.10;101648.28;5012926;28;20038;-76
2023/06/14 00:46:43;;;;;;;0.00;0.00;;;;;;;25.74;29.09;101638.19;5012017;28;20049;-74
2023/06/14 00:49:10;;;;;;;0.00;0.00;;;;;;;25.53;29.62;101642.50;5011512;28;20041;-74
2023/06/14 00:51:37;;;;;;;0.00;0.00;;;;;;;25.71;29.03;101643.50;5011162;28;20038;-76
2023/06/14 00:54:03;;;;;;;0.00;0.00;;;;;;;25.49;29.07;101646.97;5009645;28;20041;-76
2023/06/14 00:56:29;;;;;;;0.00;0.00;;;;;;;25.76;29.03;101646.16;5010657;28;20038;-76
2023/06/14 00:58:56;;;;;;;0.03;0.03;;;;;;;25.24;29.59;101650.97;5010178;28;20637;-74
2023/06/14 01:01:21;;;;;;;0.00;0.00;;;;;;;25.15;29.83;101643.72;5009354;28;20033;-75
2023/06/14 01:03:47;;;;;;;0.00;0.00;;;;;;;25.44;29.78;101646.22;5010293;28;20046;-76
2023/06/14 01:06:29;;;;;;;0.00;0.00;;;;;;;25.51;29.67;101641.16;5010125;28;20056;-74
2023/06/14 01:09:09;;;;;;;0.00;0.00;;;;;;;25.40;29.52;101646.03;5010504;28;20112;-77
2023/06/14 01:11:59;;;;;;;0.10;0.10;;;;;;;25.37;29.89;101652.13;4999002;28;20049;-77
2023/06/14 01:14:26;;;;;;;0.00;0.00;;;;;;;25.25;29.90;101649.06;5010526;28;20060;-77
2023/06/14 01:16:53;;;;;;;0.00;0.00;;;;;;;24.97;30.24;101650.94;5010880;28;20028;-75
2023/06/14 01:19:22;;;;;;;0.00;0.00;;;;;;;25.04;30.34;101645.84;5010483;28;20049;-77
2023/06/14 01:21:50;;;;;;;0.00;0.00;;;;;;;25.14;30.14;101651.16;5011092;28;20030;-74
2023/06/14 01:24:19;;;;;;;0.00;0.00;;;;;;;25.14;29.72;101653.09;5012553;28;20391;-75
2023/06/14 01:26:46;;;;;;;0.00;0.00;;;;;;;24.60;30.76;101641.91;5013980;28;20040;-75
2023/06/14 01:29:17;;;;;;;0.08;0.08;;;;;;;24.93;30.70;101654.56;5013276;28;20367;-73
2023/06/14 01:31:43;;;;;;;0.10;0.10;;;;;;;24.95;30.43;101647.66;5013758;28;20029;-75
2023/06/14 01:34:09;;;;;;;0.00;0.00;;;;;;;24.94;30.70;101645.22;5013222;28;20042;-74
2023/06/14 01:36:37;;;;;;;0.10;0.10;;;;;;;24.89;30.37;101651.59;5013379;28;20092;-75
2023/06/14 01:39:05;;;;;;;0.00;0.00;;;;;;;24.89;30.78;101662.59;5013361;28;20088;-73
2023/06/14 01:41:31;;;;;;;0.00;0.00;;;;;;;24.68;31.24;101658.53;5013027;28;20038;-76
2023/06/14 01:43:58;;;;;;;0.00;0.00;;;;;;;24.68;31.36;101658.53;5013286;28;20088;-76
2023/06/14 01:46:24;;;;;;;0.10;0.10;;;;;;;24.59;30.92;101665.81;5013729;28;20475;-75
2023/06/14 01:48:50;;;;;;;0.00;0.00;;;;;;;24.44;31.42;101655.06;5013339;28;20034;-77
2023/06/14 01:51:15;;;;;;;0.10;0.10;;;;;;;24.52;31.38;101664.56;5013092;28;20068;-74
2023/06/14 01:53:40;;;;;;;0.00;0.00;;;;;;;24.43;31.51;101661.69;5012528;28;20042;-75
2023/06/14 01:56:06;;;;;;;0.00;0.00;;;;;;;24.53;31.15;101663.47;5012515;28;20403;-74
2023/06/14 01:58:32;;;;;;;0.00;0.00;;;;;;;24.47;31.53;101661.91;5012251;28;20017;-75
2023/06/14 02:01:00;;;;;;;0.10;0.10;;;;;;;23.60;32.69;101660.53;5012076;28;20125;-75
2023/06/14 02:03:26;;;;;;;0.00;0.00;;;;;;;24.00;32.53;101658.09;5012044;28;20050;-76
2023/06/14 02:05:51;;;;;;;0.00;0.00;;;;;;;24.06;32.08;101659.72;5012441;28;20048;-74
2023/06/14 02:08:17;;;;;;;0.10;0.10;;;;;;;24.34;32.15;101663.44;5012500;28;20074;-75
2023/06/14 02:10:43;;;;;;;0.08;0.08;;;;;;;24.28;32.25;101665.47;5012367;28;20026;-74
2023/06/14 02:13:08;;;;;;;0.00;0.00;;;;;;;24.11;32.41;101661.59;5011720;28;20399;-76
2023/06/14 02:15:35;;;;;;;0.10;0.10;;;;;;;24.34;31.91;101657.94;5012337;28;20030;-74
2023/06/14 02:18:04;;;;;;;0.10;0.10;;;;;;;24.21;32.56;101659.53;5010937;28;20034;-76
2023/06/14 02:20:30;;;;;;;0.10;0.10;;;;;;;24.14;32.54;101659.06;5012345;28;20030;-75
2023/06/14 02:22:56;;;;;;;0.00;0.00;;;;;;;23.91;32.96;101657.13;5011835;28;20092;-74
2023/06/14 02:25:22;;;;;;;0.00;0.00;;;;;;;24.00;32.86;101660.06;5012436;28;20026;-74
2023/06/14 02:27:47;;;;;;;0.05;0.05;;;;;;;23.82;33.08;101661.63;5012286;28;20042;-74
2023/06/14 02:30:13;;;;;;;0.00;0.00;;;;;;;23.84;33.16;101664.91;5012140;28;20038;-73
2023/06/14 02:32:40;;;;;;;0.00;0.00;;;;;;;23.88;32.69;101665.16;5011509;28;20056;-75
2023/06/14 02:35:06;;;;;;;0.10;0.10;;;;;;;23.51;33.92;101663.94;5011810;28;20088;-75
2023/06/14 02:37:32;;;;;;;0.00;0.00;;;;;;;23.66;33.52;101665.69;5012122;28;20506;-74
2023/06/14 02:39:59;;;;;;;0.10;0.10;;;;;;;23.66;33.07;101659.38;5010277;28;20038;-75
2023/06/14 02:42:24;;;;;;;0.10;0.10;;;;;;;23.31;33.97;101668.81;5011837;28;20036;-74
2023/06/14 02:44:51;;;;;;;0.10;0.10;;;;;;;23.16;34.09;101666.19;5012084;28;20042;-75
2023/06/14 02:47:17;;;;;;;0.10;0.10;;;;;;;22.73;35.16;101667.94;5011370;28;20370;-74
2023/06/14 02:49:43;;;;;;;0.10;0.10;;;;;;;23.36;33.93;101666.84;5011966;28;20449;-75
2023/06/14 02:52:08;;;;;;;0.00;0.00;;;;;;;23.07;34.63;101665.19;5011206;28;20042;-76
2023/06/14 02:54:34;;;;;;;0.10;0.10;;;;;;;23.05;34.96;101670.97;5011837;28;20034;-75
2023/06/14 02:56:59;;;;;;;0.03;0.03;;;;;;;23.17;34.48;101671.41;5011244;28;20112;-76
2023/06/14 02:59:26;;;;;;;0.03;0.03;;;;;;;23.60;34.04;101669.59;5010710;28;20073;-75
2023/06/14 03:01:51;;;;;;;0.00;0.00;;;;;;;23.05;34.65;101676.44;5010858;28;20108;-74
2023/06/14 03:04:17;;;;;;;0.10;0.10;;;;;;;23.32;34.41;101667.69;5011446;28;20113;-75
2023/06/14 03:06:44;;;;;;;0.00;0.00;;;;;;;23.34;34.75;101679.22;5010062;28;20038;-75
2023/06/14 03:09:09;;;;;;;0.10;0.10;;;;;;;23.34;34.74;101682.78;5009748;28;20438;-76
2023/06/14 03:11:35;;;;;;;0.10;0.10;;;;;;;23.32;34.83;101685.00;5011208;28;20034;-76
2023/06/14 03:14:03;;;;;;;0.10;0.10;;;;;;;23.30;35.10;101683.59;5011040;28;20247;-74
2023/06/14 03:16:29;;;;;;;0.10;0.10;;;;;;;23.32;34.50;101690.47;5010425;28;20440;-75
2023/06/14 03:18:55;;;;;;;0.10;0.10;;;;;;;23.07;35.09;101695.34;5011030;28;20038;-74
2023/06/14 03:21:21;;;;;;;0.10;0.10;;;;;;;23.15;35.33;101683.75;5010815;28;20309;-74
2023/06/14 03:23:48;;;;;;;0.10;0.10;;;;;;;23.25;34.63;101691.91;5009493;28;20460;-76
2023/06/14 03:26:14;;;;;;;0.10;0.10;;;;;;;23.18;35.34;101696.88;4994676;28;20042;-74
2023/06/14 03:28:50;;;;;;;0.10;0.10;;;;;;;23.13;35.88;101691.44;5009296;28;20038;-74
2023/06/14 03:31:16;;;;;;;0.10;0.10;;;;;;;22.96;36.39;101693.81;5010351;28;20096;-77
2023/06/14 03:33:41;;;;;;;0.03;0.03;;;;;;;22.95;36.22;101708.59;5009619;28;20041;-76
2023/06/14 03:36:07;;;;;;;0.30;0.10;;;;;;;22.91;35.85;101707.53;5010650;28;20034;-75
2023/06/14 03:38:33;;;;;;;0.10;0.10;;;;;;;23.14;36.22;101707.59;5010578;28;20034;-76
2023/06/14 03:40:58;;;;;;;0.10;0.10;;;;;;;22.92;36.65;101711.94;5009174;28;20056;-77
2023/06/14 03:43:24;;;;;;;0.10;0.10;;;;;;;23.17;35.86;101709.78;5011649;28;20034;-77
2023/06/14 03:45:50;;;;;;;0.10;0.10;;;;;;;23.24;35.25;101714.94;5010362;28;20034;-74
2023/06/14 03:48:16;;;;;;;0.10;0.10;;;;;;;23.07;36.02;101709.88;5010448;28;20490;-75
2023/06/14 03:50:42;;;;;;;0.10;0.10;;;;;;;23.15;36.35;101717.50;5010967;28;20042;-76
2023/06/14 03:53:08;;;;;;;0.00;0.00;;;;;;;22.79;37.36;101713.38;5010765;28;20038;-75
2023/06/14 03:55:34;;;;;;;0.10;0.10;;;;;;;22.87;37.57;101718.25;5010900;28;20052;-76
2023/06/14 03:58:00;;;;;;;0.10;0.10;;;;;;;22.94;36.85;101721.47;5009550;28;20041;-77
2023/06/14 04:00:26;;;;;;;0.10;0.10;;;;;;;22.87;37.19;101725.66;5009336;28;20110;-75
2023/06/14 04:02:52;;;;;;;0.10;0.10;;;;;;;23.12;37.13;101730.94;5007678;28;20526;-76
2023/06/14 04:05:18;;;;;;;0.08;0.08;;;;;;;22.73;37.27;101730.13;5002200;28;20034;-75
2023/06/14 04:07:44;;;;;;;0.10;0.10;;;;;;;23.17;36.92;101733.66;5010251;28;20124;-76
2023/06/14 04:10:11;;;;;;;0.10;0.10;;;;;;;22.82;37.44;101729.25;5010673;28;20407;-75
2023/06/14 04:12:37;;;;;;;0.10;0.10;;;;;;;22.88;37.48;101738.28;5010025;28;20078;-76
2023/06/14 04:15:05;;;;;;;0.10;0.10;;;;;;;22.99;37.33;101742.56;5010106;28;20037;-77
2023/06/14 04:17:32;;;;;;;0.10;0.10;;;;;;;23.02;37.20;101742.81;5009519;28;20046;-75
2023/06/14 04:19:59;;;;;;;0.05;0.05;;;;;;;23.13;36.61;101738.91;5008831;28;20390;-74
2023/06/14 04:22:28;;;;;;;0.00;0.00;;;;;;;22.76;37.94;101735.84;5009513;28;20265;-74
2023/06/14 04:24:56;;;;;;;0.10;0.10;;;;;;;23.08;37.38;101740.84;5010281;28;20042;-74
2023/06/14 04:27:25;;;;;;;0.10;0.10;;;;;;;23.06;37.47;101745.78;5008441;28;20053;-76
2023/06/14 04:29:56;;;;;;;0.00;0.00;;;;;;;22.84;38.51;101748.16;5009996;28;20038;-73
2023/06/14 04:32:29;;;;;;;0.00;0.00;;;;;;;23.19;37.22;101745.94;5010540;28;20671;-75
2023/06/14 04:34:58;;;;;;;0.10;0.10;;;;;;;23.24;37.57;101750.59;5008951;28;20030;-73
2023/06/14 04:37:27;;;;;;;0.10;0.10;;;;;;;22.64;38.22;101751.84;5010414;28;20022;-75
2023/06/14 04:39:55;;;;;;;0.05;0.05;;;;;;;22.96;38.44;101760.41;5009985;28;20030;-74
2023/06/14 04:42:24;;;;;;;0.10;0.10;;;;;;;23.08;37.68;101766.34;5009533;28;20053;-75
2023/06/14 04:44:50;;;;;;;0.05;0.05;;;;;;;23.07;38.33;101763.88;5010108;28;20514;-75
2023/06/14 04:47:16;;;;;;;0.10;0.10;;;;;;;23.02;38.66;101770.22;5009510;28;20048;-75
2023/06/14 04:49:42;;;;;;;0.10;0.10;;;;;;;23.05;37.52;101782.56;5010024;28;20079;-75
2023/06/14 04:52:09;;;;;;;0.10;0.10;;;;;;;23.37;37.44;101778.19;5009418;28;20049;-74
2023/06/14 04:54:36;;;;;;;0.00;0.00;;;;;;;22.78;38.50;101769.28;5009719;28;20038;-74
2023/06/14 04:57:04;;;;;;;0.10;0.10;;;;;;;23.41;37.96;101781.19;5010037;28;20042;-74
2023/06/14 04:59:33;;;;;;;0.10;0.10;;;;;;;23.23;38.31;101776.38;5012379;28;20069;-75
2023/06/14 05:01:59;;;;;;;0.00;0.00;;;;;;;23.27;38.45;101786.47;5013969;28;20046;-75
2023/06/14 05:04:26;;;;;;;0.28;0.10;;;;;;;23.42;38.34;101782.84;5014016;28;20084;-75
2023/06/14 05:06:54;;;;;;;0.00;0.00;;;;;;;23.57;38.01;101782.69;5012721;28;20034;-73
2023/06/14 05:09:20;;;;;;;0.00;0.00;;;;;;;23.72;37.66;101784.47;5012755;28;20033;-74
2023/06/14 05:11:47;;;;;;;0.10;0.10;;;;;;;23.98;36.79;101788.59;5012743;28;20502;-76
2023/06/14 05:14:13;;;;;;;0.10;0.10;;;;;;;23.84;37.28;101793.94;5012610;28;20124;-75
2023/06/14 05:16:39;;;;;;;0.10;0.10;;;;;;;23.81;37.50;101790.97;5013100;28;20034;-74
2023/06/14 05:19:04;;;;;;;0.00;0.00;;;;;;;24.03;37.68;101800.38;5013004;28;20096;-73
2023/06/14 05:21:30;;;;;;;0.10;0.10;;;;;;;24.26;36.53;101799.56;5012783;28;20034;-74
2023/06/14 05:23:56;;;;;;;0.00;0.00;;;;;;;24.22;36.96;101801.25;5011746;28;20113;-74
2023/06/14 05:26:23;;;;;;;0.00;0.00;;;;;;;24.36;36.61;101793.09;5012739;28;20140;-75
2023/06/14 05:28:50;;;;;;;0.08;0.08;;;;;;;24.55;36.28;101796.69;5012334;28;20289;-75
2023/06/14 05:31:15;;;;;;;0.10;0.10;;;;;;;24.56;35.83;101797.53;5009082;28;20092;-75
2023/06/14 05:33:41;;;;;;;0.00;0.00;;;;;;;24.65;35.92;101790.28;5011814;28;20489;-75
2023/06/14 05:36:06;;;;;;;0.10;0.10;;;;;;;24.37;35.81;101794.75;5012488;28;20041;-72
2023/06/14 05:38:31;;;;;;;0.00;0.00;;;;;;;24.80;35.53;101781.84;5011300;28;20038;-71
2023/06/14 05:40:57;;;;;;;0.10;0.10;;;;;;;24.83;34.94;101794.97;5011169;28;20033;-71
2023/06/14 05:43:22;;;;;;;0.08;0.08;;;;;;;25.07;34.94;101796.53;5011956;28;20026;-70
2023/06/14 05:45:48;;;;;;;0.00;0.00;;;;;;;25.15;35.20;101795.88;5011301;28;20125;-71
2023/06/14 05:48:13;;;;;;;0.10;0.10;;;;;;;25.31;34.70;101792.84;5009873;28;20049;-71
2023/06/14 05:50:38;;;;;;;0.10;0.10;;;;;;;25.31;34.63;101798.38;5010813;28;20042;-70
2023/06/14 05:53:04;;;;;;;0.00;0.00;;;;;;;25.27;34.36;101800.91;5010754;28;20084;-72
2023/06/14 05:55:29;;;;;;;0.17;0.08;;;;;;;25.50;33.59;101807.41;5011536;28;20022;-71
2023/06/14 05:57:55;;;;;;;0.00;0.00;;;;;;;25.63;33.37;101809.41;5010852;28;20026;-70
2023/06/14 06:00:20;;;;;;;0.10;0.10;;;;;;;25.71;33.47;101817.00;5010832;28;20375;-70
2023/06/14 06:02:47;;;;;;;0.00;0.00;;;;;;;25.78;32.34;101811.88;5010521;28;20438;-69
2023/06/14 06:05:13;;;;;;;0.00;0.00;;;;;;;25.82;32.69;101821.19;5010094;28;20038;-70
2023/06/14 06:07:40;;;;;;;0.25;0.00;;;;;;;25.93;32.73;101822.63;5008817;28;20389;-71
2023/06/14 06:10:06;;;;;;;0.00;0.00;;;;;;;26.03;32.53;101820.50;5010606;28;20037;-69
2023/06/14 06:12:32;;;;;;;0.00;0.00;;;;;;;26.18;32.17;101824.91;5010839;28;20087;-70
2023/06/14 06:14:58;;;;;;;0.00;0.00;;;;;;;26.09;32.35;101821.25;5010956;28;20101;-70
2023/06/14 06:17:25;;;;;;;0.00;0.00;;;;;;;26.16;31.85;101821.66;5010941;28;20053;-71
2023/06/14 06:19:50;;;;;;;0.00;0.00;;;;;;;25.96;31.95;101825.56;5011227;28;20018;-71
2023/06/14 06:22:16;;;;;;;0.00;0.00;;;;;;;26.18;31.83;101819.41;5009709;28;20180;-70
2023/06/14 06:24:42;;;;;;;0.00;0.00;;;;;;;26.30;31.54;101816.94;5010894;28;20030;-71
2023/06/14 06:27:08;;;;;;;0.08;0.08;;;;;;;26.53;31.52;101818.69;5010375;28;20060;-69
2023/06/14 06:29:33;;;;;;;0.00;0.00;;;;;;;25.54;33.14;101823.03;5010429;28;20092;-72
2023/06/14 06:31:58;;;;;;;0.00;0.00;;;;;;;26.53;31.97;101828.91;5011024;28;20038;-72
2023/06/14 06:34:24;;;;;;;0.00;0.00;;;;;;;26.79;31.28;101830.81;5011099;28;20061;-71
2023/06/14 06:36:49;;;;;;;0.00;0.00;;;;;;;26.80;31.46;101828.88;5009380;28;20037;-70
2023/06/14 06:39:15;;;;;;;0.00;0.00;;;;;;;26.95;30.74;101828.53;5010437;28;20037;-71
2023/06/14 06:41:40;;;;;;;0.00;0.00;;;;;;;27.08;30.65;101832.38;5010742;28;20049;-71
2023/06/14 06:44:06;;;;;;;0.00;0.00;;;;;;;26.88;30.74;101844.72;5010361;28;20030;-72
2023/06/14 06:46:33;;;;;;;0.00;0.00;;;;;;;26.79;30.76;101847.38;5011065;28;20033;-71
2023/06/14 06:48:59;;;;;;;0.00;0.00;;;;;;;27.22;29.79;101852.50;5004652;28;20049;-72
2023/06/14 06:51:24;;;;;;;0.00;0.00;;;;;;;27.30;29.73;101851.75;5027490;28;20429;-70
2023/06/14 06:53:56;;;;;;;0.00;0.00;;;;;;;27.03;30.35;101849.09;5006137;28;20034;-70
2023/06/14 06:56:24;;;;;;;0.00;0.00;;;;;;;25.84;31.42;101844.56;5010338;28;20042;-72
2023/06/14 06:58:50;;;;;;;0.00;0.00;;;;;;;26.52;30.12;101854.81;4996911;28;20061;-72
2023/06/14 07:01:17;;;;;;;0.00;0.00;;;;;;;26.97;29.68;101850.31;5003564;28;20564;-71
2023/06/14 07:03:43;;;;;;;0.00;0.00;;;;;;;26.47;30.42;101854.94;4993895;28;20034;-70
2023/06/14 07:06:08;;;;;;;0.00;0.00;;;;;;;27.40;29.74;101855.09;4994196;28;20041;-71
2023/06/14 07:08:34;;;;;;;0.00;0.00;;;;;;;27.35;29.51;101858.00;4996724;28;20034;-71
2023/06/14 07:10:59;;;;;;;0.00;0.00;;;;;;;27.58;28.71;101859.63;5000045;28;20036;-70
2023/06/14 07:13:25;;;;;;;0.03;0.03;;;;;;;27.75;29.22;101858.94;5009121;28;20447;-71
2023/06/14 07:15:53;;;;;;;0.00;0.00;;;;;;;26.89;29.99;101860.94;5007594;28;20045;-71
2023/06/14 07:18:18;;;;;;;0.30;0.00;;;;;;;27.86;28.66;101862.22;5003268;28;20543;-71
2023/06/14 07:20:44;;;;;;;0.00;0.00;;;;;;;28.22;28.24;101866.53;5004681;28;20041;-70
2023/06/14 07:23:09;;;;;;;0.00;0.00;;;;;;;28.18;27.61;101870.25;4995677;28;20053;-71
2023/06/14 07:25:35;;;;;;;0.00;0.00;;;;;;;27.72;28.43;101857.59;4994113;28;20082;-69
2023/06/14 07:28:00;;;;;;;0.00;0.00;;;;;;;27.54;28.32;101861.38;4994648;28;20498;-70
2023/06/14 07:30:26;;;;;;;0.00;0.00;;;;;;;28.06;27.48;101870.00;4996960;28;20120;-70
2023/06/14 07:32:53;;;;;;;0.00;0.00;;;;;;;28.22;27.56;101868.47;4993969;28;20133;-70
2023/06/14 07:35:18;;;;;;;0.00;0.00;;;;;;;28.19;27.57;101885.69;4989032;28;20040;-70
2023/06/14 07:37:44;;;;;;;0.00;0.00;;;;;;;27.95;27.52;101885.25;5003083;28;20030;-72
2023/06/14 07:40:10;;;;;;;0.00;0.00;;;;;;;28.04;27.51;101877.81;4988516;28;20565;-68
2023/06/14 07:42:35;;;;;;;0.00;0.00;;;;;;;28.13;27.18;101876.72;5004922;28;20474;-70
2023/06/14 07:45:05;;;;;;;0.00;0.00;;;;;;;28.39;26.90;101888.72;5006328;28;20036;-71
2023/06/14 07:47:31;;;;;;;0.00;0.00;;;;;;;29.01;26.12;101881.09;5004247;28;20517;-72
2023/06/14 07:49:56;;;;;;;0.00;0.00;;;;;;;28.75;26.52;101876.66;4989246;28;20054;-72
2023/06/14 07:52:21;;;;;;;0.00;0.00;;;;;;;28.07;28.19;101877.97;4997376;28;20018;-71
2023/06/14 07:54:47;;;;;;;0.00;0.00;;;;;;;27.97;27.74;101872.72;4993868;28;20042;-69
2023/06/14 07:57:12;;;;;;;0.00;0.00;;;;;;;28.66;26.66;101884.13;4993080;28;20493;-68
2023/06/14 07:59:38;;;;;;;0.00;0.00;;;;;;;29.15;25.87;101881.78;4993250;28;20494;-69
2023/06/14 08:02:04;;;;;;;0.00;0.00;;;;;;;28.39;27.02;101882.38;5001017;28;20045;-71
2023/06/14 08:04:29;;;;;;;0.00;0.00;;;;;;;28.67;26.77;101885.75;5006139;28;20532;-70
2023/06/14 08:06:55;;;;;;;0.00;0.00;;;;;;;29.07;25.59;101879.00;5003951;28;20391;-70
2023/06/14 08:09:20;;;;;;;0.00;0.00;;;;;;;28.92;25.91;101894.09;5005854;28;20030;-72
2023/06/14 08:11:45;;;;;;;0.00;0.00;;;;;;;29.34;25.56;101885.06;5006859;28;20034;-71
2023/06/14 08:14:11;;;;;;;0.00;0.00;;;;;;;28.80;26.62;101891.16;5005233;28;20410;-70
2023/06/14 08:16:37;;;;;;;0.00;0.00;;;;;;;29.10;26.15;101876.38;5003376;28;20034;-70
2023/06/14 08:19:02;;;;;;;0.00;0.00;;;;;;;29.23;25.51;101880.16;5006859;28;20026;-70
2023/06/14 08:21:29;;;;;;;0.00;0.00;;;;;;;28.68;26.39;101876.31;5006467;28;20046;-70
2023/06/14 08:23:57;;;;;;;0.00;0.00;;;;;;;29.57;24.91;101871.03;5006287;28;20149;-69
2023/06/14 08:26:23;;;;;;;0.00;0.00;;;;;;;29.50;24.89;101872.34;5007355;28;20410;-71
2023/06/14 08:28:48;;;;;;;0.00;0.00;;;;;;;29.54;24.89;101872.50;5007196;28;20033;-72
2023/06/14 08:31:13;;;;;;;0.00;0.00;;;;;;;29.80;24.63;101875.28;5005970;28;20088;-70
2023/06/14 08:33:42;;;;;;;0.00;0.00;;;;;;;29.32;25.00;101867.97;5010481;28;20049;-70
2023/06/14 08:36:08;;;;;;;0.00;0.00;;;;;;;29.77;24.35;101865.66;5001657;28;20046;-68
2023/06/14 08:38:33;;;;;;;0.00;0.00;;;;;;;29.60;24.96;101865.66;5002420;28;20313;-69
2023/06/14 08:41:01;;;;;;;0.00;0.00;;;;;;;29.13;26.06;101874.94;5010491;28;20420;-68
2023/06/14 08:43:26;;;;;;;0.00;0.00;;;;;;;29.00;25.82;101868.41;5010555;28;20088;-71
2023/06/14 08:46:00;;;;;;;0.00;0.00;;;;;;;29.41;25.23;101860.47;5010719;28;20030;-70
2023/06/14 08:48:26;;;;;;;0.00;0.00;;;;;;;29.67;24.68;101865.16;5008899;28;20104;-70
2023/06/14 08:51:01;;;;;;;0.00;0.00;;;;;;;30.00;24.16;101864.28;5008967;28;20037;-70
2023/06/14 08:53:28;;;;;;;0.00;0.00;;;;;;;30.82;23.43;101865.72;5009380;28;20276;-72
2023/06/14 08:55:55;;;;;;;0.00;0.00;;;;;;;30.56;24.17;101865.06;5009956;28;20197;-69
2023/06/14 08:58:24;;;;;;;0.00;0.00;;;;;;;30.75;23.49;101857.91;5009362;28;20091;-70
2023/06/14 09:00:49;;;;;;;0.00;0.00;;;;;;;29.46;25.73;101874.13;5009307;28;20038;-70
2023/06/14 09:03:15;;;;;;;0.00;0.00;;;;;;;30.22;24.39;101864.06;5009323;28;20050;-71
2023/06/14 09:05:40;;;;;;;0.00;0.00;;;;;;;30.46;24.09;101873.75;5009528;28;20034;-73
2023/06/14 09:08:06;;;;;;;0.00;0.00;;;;;;;29.81;24.49;101874.94;5009835;28;20057;-71
2023/06/14 09:10:37;;;;;;;0.00;0.00;;;;;;;30.32;24.02;101871.22;5010905;28;20033;-69
2023/06/14 09:13:06;;;;;;;0.00;0.00;;;;;;;31.02;23.88;101864.94;5008190;28;20085;-72
2023/06/14 09:15:32;;;;;;;0.00;0.00;;;;;;;31.08;23.59;101875.53;5008690;28;20078;-69
2023/06/14 09:17:57;;;;;;;0.00;0.00;;;;;;;30.37;23.20;101873.78;5009629;28;20490;-73
2023/06/14 09:20:24;;;;;;;0.00;0.00;;;;;;;31.08;23.76;101878.28;5010641;28;20030;-71
2023/06/14 09:22:49;;;;;;;0.00;0.00;;;;;;;31.09;22.65;101871.59;5010413;28;20442;-70
2023/06/14 09:25:15;;;;;;;0.00;0.00;;;;;;;30.14;22.48;101873.22;5009554;28;20120;-70
2023/06/14 09:27:41;;;;;;;0.00;0.00;;;;;;;30.48;23.03;101872.28;5010268;28;20153;-70
2023/06/14 09:30:09;;;;;;;0.43;0.00;;;;;;;29.79;22.98;101873.63;5008164;28;20497;-70
2023/06/14 09:32:39;;;;;;;0.00;0.00;;;;;;;30.88;22.24;101867.97;5006635;28;20493;-70
2023/06/14 09:35:08;;;;;;;0.00;0.00;;;;;;;31.27;21.46;101875.06;5009202;28;20556;-70
2023/06/14 09:37:35;;;;;;;0.00;0.00;;;;;;;31.59;21.25;101868.72;5009692;28;20014;-70
2023/06/14 09:40:01;;;;;;;0.00;0.00;;;;;;;31.92;20.06;101869.56;5009844;28;20037;-71
2023/06/14 09:42:27;;;;;;;0.00;0.00;;;;;;;31.55;21.46;101866.97;5009972;28;20033;-71
2023/06/14 09:44:54;;;;;;;0.00;0.00;;;;;;;31.68;21.16;101869.47;5008507;28;20062;-70
2023/06/14 09:47:21;;;;;;;0.00;0.00;;;;;;;31.71;20.57;101867.94;5008896;28;20045;-70
2023/06/14 09:49:47;;;;;;;0.00;0.00;;;;;;;32.06;20.04;101876.78;5010676;28;20036;-69
2023/06/14 09:52:17;;;;;;;0.00;0.00;;;;;;;32.00;20.31;101876.16;5009610;28;20038;-71
2023/06/14 09:54:46;;;;;;;0.00;0.00;;;;;;;31.76;20.21;101871.31;5009088;28;20034;-71
2023/06/14 09:57:12;;;;;;;0.00;0.00;;;;;;;32.16;20.22;101873.56;5009981;28;20054;-70
2023/06/14 09:59:45;;;;;;;0.00;0.00;;;;;;;32.39;20.44;101878.34;5006867;28;20043;-70
2023/06/14 10:02:31;;;;;;;0.00;0.00;;;;;;;32.84;19.91;101881.00;5007818;28;20048;-69
2023/06/14 10:05:08;;;;;;;0.00;0.00;;;;;;;31.68;20.97;101877.81;5007427;28;20109;-69
2023/06/14 10:07:48;;;;;;;0.00;0.00;;;;;;;31.83;21.24;101870.78;5008127;28;20128;-70
2023/06/14 10:10:14;;;;;;;0.00;0.00;;;;;;;31.61;21.94;101869.19;5008057;28;20112;-71
2023/06/14 10:12:40;;;;;;;0.00;0.00;;;;;;;32.18;20.93;101872.03;5009321;28;20104;-71
2023/06/14 10:15:08;;;;;;;0.00;0.00;;;;;;;32.60;19.55;101875.44;5006816;28;20042;-69
2023/06/14 10:17:47;;;;;;;0.00;0.00;;;;;;;32.86;19.74;101870.31;5008278;28;20053;-70
2023/06/14 10:20:21;;;;;;;0.03;0.00;;;;;;;32.43;19.43;101889.56;5008684;28;20157;-69
2023/06/14 10:22:55;;;;;;;0.00;0.00;;;;;;;31.73;20.58;101876.75;5009130;28;20036;-70
2023/06/14 10:25:31;;;;;;;0.00;0.00;;;;;;;31.43;20.66;101858.59;5008816;28;20057;-70
2023/06/14 10:28:13;;;;;;;0.00;0.00;;;;;;;31.58;20.89;101874.63;5007120;28;20040;-71
2023/06/14 10:30:39;;;;;;;0.00;0.00;;;;;;;32.59;20.02;101873.84;5006574;28;20033;-72
2023/06/14 10:33:07;;;;;;;0.00;0.00;;;;;;;32.82;19.44;101873.00;5007566;28;20292;-69
2023/06/14 10:35:34;;;;;;;0.00;0.00;;;;;;;31.63;20.87;101866.06;5008228;28;20140;-70
2023/06/14 10:38:12;;;;;;;0.00;0.00;;;;;;;33.24;20.24;101867.91;5007720;28;20034;-72
2023/06/14 10:40:38;;;;;;;0.00;0.00;;;;;;;33.32;19.53;101871.72;5007160;28;20021;-70
2023/06/14 10:43:23;;;;;;;0.00;0.00;;;;;;;32.17;20.08;101859.28;5008596;28;20041;-72
2023/06/14 10:46:34;;;;;;;0.00;0.00;;;;;;;32.68;20.14;101860.59;5006413;28;20030;-71
2023/06/14 10:48:59;;;;;;;0.00;0.00;;;;;;;33.37;19.18;101863.94;5007446;28;20048;-75
2023/06/14 10:51:29;;;;;;;0.00;0.00;;;;;;;33.27;19.19;101863.63;5008621;28;20042;-72
2023/06/14 10:53:58;;;;;;;0.00;0.00;;;;;;;33.36;19.38;101862.31;5008410;28;20042;-70
2023/06/14 10:56:27;;;;;;;0.00;0.00;;;;;;;33.52;19.18;101866.00;5006971;28;20084;-72
2023/06/14 10:58:52;;;;;;;0.00;0.00;;;;;;;33.53;18.25;101864.81;5007217;28;20045;-71
2023/06/14 11:01:39;;;;;;;0.00;0.00;;;;;;;34.43;17.61;101848.09;5005791;28;20022;-70
2023/06/14 11:04:10;;;;;;;0.00;0.00;;;;;;;34.21;17.61;101856.28;5002021;28;20129;-71
2023/06/14 11:07:21;;;;;;;0.00;0.00;;;;;;;33.54;18.57;101849.72;4989083;28;20035;-72
2023/06/14 11:10:25;;;;;;;0.00;0.00;;;;;;;33.39;19.25;101861.63;4967281;28;20537;-72
2023/06/14 11:12:54;;;;;;;0.00;0.00;;;;;;;33.63;18.35;101849.56;4889325;29;20044;-72
2023/06/14 11:15:19;;;;;;;0.00;0.00;;;;;;;33.95;17.83;101851.22;4887910;29;20041;-71
2023/06/14 11:17:56;;;;;;;0.10;0.00;;;;;;;34.20;18.17;101849.91;4889666;29;20076;-70
2023/06/14 11:20:25;;;;;;;0.00;0.00;;;;;;;33.88;17.79;101845.47;4890861;29;20151;-71
2023/06/14 11:22:51;;;;;;;0.00;0.00;;;;;;;34.24;18.08;101848.00;4889271;29;20128;-69
2023/06/14 11:25:17;;;;;;;0.00;0.00;;;;;;;34.72;16.86;101845.97;4889375;29;20119;-71